createdAt,value
2022-11-10T00:04:30.776Z,100597.25
2022-11-10T00:08:51.635Z,100580.00
2022-11-10T00:13:12.113Z,100575.09
2022-11-10T00:17:36.325Z,100581.28
2022-11-10T00:21:56.923Z,100588.25
2022-11-10T00:26:19.899Z,100594.91
2022-11-10T00:30:43.393Z,100601.38
2022-11-10T00:35:07.777Z,100608.47
2022-11-10T00:39:28.238Z,100608.25
2022-11-10T00:43:49.349Z,100596.97
2022-11-10T00:48:09.767Z,100599.66
2022-11-10T00:52:30.067Z,100602.72
2022-11-10T00:56:50.900Z,100598.94
2022-11-10T01:01:12.043Z,100611.25
2022-11-10T01:05:35.378Z,100606.00
2022-11-10T01:09:55.593Z,100610.81
2022-11-10T01:14:15.616Z,100612.25
2022-11-10T01:18:36.541Z,100603.72
2022-11-10T01:22:56.937Z,100608.81
2022-11-10T01:27:17.461Z,100607.88
2022-11-10T01:31:38.164Z,100606.28
2022-11-10T01:35:59.009Z,100608.59
2022-11-10T01:40:19.850Z,100604.09
2022-11-10T01:44:42.017Z,100600.53
2022-11-10T01:49:04.194Z,100601.44
2022-11-10T01:53:27.833Z,100602.44
2022-11-10T01:57:48.839Z,100610.63
2022-11-10T02:02:20.633Z,100607.91
2022-11-10T02:06:43.211Z,100611.22
2022-11-10T02:11:04.619Z,100618.94
2022-11-10T02:15:25.205Z,100622.72
2022-11-10T02:19:45.636Z,100620.94
2022-11-10T02:24:05.738Z,100622.53
2022-11-10T02:28:27.228Z,100623.84
2022-11-10T02:32:47.215Z,100623.84
2022-11-10T02:37:07.906Z,100622.88
2022-11-10T02:41:28.145Z,100635.34
2022-11-10T02:45:48.884Z,100627.22
2022-11-10T02:50:09.374Z,100632.31
2022-11-10T02:54:29.617Z,100642.06
2022-11-10T02:58:49.674Z,100646.38
2022-11-10T03:03:10.315Z,100645.22
2022-11-10T03:07:30.430Z,100639.25
2022-11-10T03:11:51.261Z,100645.19
2022-11-10T03:16:11.262Z,100645.66
2022-11-10T03:20:31.867Z,100637.81
2022-11-10T03:24:51.962Z,100623.81
2022-11-10T03:29:12.559Z,100628.22
2022-11-10T03:33:32.981Z,100637.09
2022-11-10T03:37:53.379Z,100641.28
2022-11-10T03:42:13.487Z,100642.38
2022-11-10T03:46:33.957Z,100645.00
2022-11-10T03:50:54.288Z,100663.06
2022-11-10T03:55:17.347Z,100656.69
2022-11-10T03:59:37.675Z,100664.63
2022-11-10T04:03:58.308Z,100656.31
2022-11-10T04:08:37.076Z,100665.19
2022-11-10T04:13:16.367Z,100660.63
2022-11-10T04:17:37.027Z,100657.06
2022-11-10T04:21:58.096Z,100661.72
2022-11-10T04:26:29.817Z,100678.56
2022-11-10T04:30:50.294Z,100694.63
2022-11-10T04:35:10.417Z,100709.13
2022-11-10T04:39:30.682Z,100695.97
2022-11-10T04:43:51.195Z,100695.97
2022-11-10T04:48:11.733Z,100693.97
2022-11-10T04:52:31.828Z,100695.94
2022-11-10T04:56:52.602Z,100698.41
2022-11-10T05:01:14.574Z,100696.50
2022-11-10T05:05:35.532Z,100709.16
2022-11-10T05:09:56.012Z,100709.63
2022-11-10T05:14:16.518Z,100710.09
2022-11-10T05:18:37.278Z,100711.56
2022-11-10T05:23:16.343Z,100713.25
2022-11-10T05:27:36.669Z,100720.31
2022-11-10T05:31:57.107Z,100726.63
2022-11-10T05:36:17.286Z,100743.22
2022-11-10T05:40:37.922Z,100744.19
2022-11-10T05:44:57.761Z,100763.19
2022-11-10T05:49:18.437Z,100767.19
2022-11-10T05:53:38.434Z,100775.50
2022-11-10T05:57:58.952Z,100786.59
2022-11-10T06:02:19.133Z,100800.63
2022-11-10T06:06:39.763Z,100800.50
2022-11-10T06:10:59.790Z,100808.81
2022-11-10T06:15:20.902Z,100813.84
2022-11-10T06:19:41.034Z,100815.78
2022-11-10T06:24:01.541Z,100817.72
2022-11-10T06:28:21.709Z,100829.66
2022-11-10T06:32:44.187Z,100834.69
2022-11-10T06:37:04.240Z,100841.34
2022-11-10T06:41:25.537Z,100843.00
2022-11-10T06:45:45.978Z,100848.03
2022-11-10T06:50:07.069Z,100859.78
2022-11-10T06:54:27.298Z,100852.56
2022-11-10T06:58:47.977Z,100862.91
2022-11-10T07:03:12.787Z,100870.56
2022-11-10T07:07:33.158Z,100879.03
2022-11-10T07:11:53.134Z,100896.19
2022-11-10T07:16:13.943Z,100896.97
2022-11-10T07:20:35.964Z,100901.69
2022-11-10T07:24:56.933Z,100904.75
2022-11-10T07:29:17.122Z,100901.81
2022-11-10T07:33:37.654Z,100900.63
2022-11-10T07:38:01.254Z,100904.16
2022-11-10T07:42:21.353Z,100904.69
2022-11-10T07:46:41.494Z,100915.50
2022-11-10T07:51:01.973Z,100917.09
2022-11-10T07:55:22.618Z,100927.03
2022-11-10T07:59:43.299Z,100933.28
2022-11-10T08:04:03.897Z,100933.06
2022-11-10T08:08:24.180Z,100940.88
2022-11-10T08:12:44.688Z,100948.31
2022-11-10T08:17:05.361Z,100948.59
2022-11-10T08:21:26.019Z,100956.03
2022-11-10T08:25:47.895Z,100979.84
2022-11-10T08:30:08.295Z,100983.50
2022-11-10T08:34:28.825Z,100990.72
2022-11-10T08:38:48.883Z,100985.81
2022-11-10T08:43:10.266Z,100979.50
2022-11-10T08:47:30.555Z,100984.59
2022-11-10T08:51:50.947Z,100995.47
2022-11-10T08:56:11.076Z,100992.56
2022-11-10T09:00:32.342Z,101017.91
2022-11-10T09:04:53.583Z,101018.59
2022-11-10T09:09:14.451Z,101025.41
2022-11-10T09:13:35.209Z,101023.78
2022-11-10T09:18:01.782Z,101032.03
2022-11-10T09:22:22.490Z,101034.19
2022-11-10T09:26:45.303Z,101027.75
2022-11-10T09:31:05.931Z,101034.94
2022-11-10T09:35:27.282Z,101030.91
2022-11-10T09:39:47.549Z,101040.88
2022-11-10T09:44:30.929Z,101035.25
2022-11-10T09:48:56.314Z,101037.41
2022-11-10T09:53:24.846Z,101041.25
2022-11-10T09:57:49.095Z,101052.41
2022-11-10T10:02:31.806Z,101046.50
2022-11-10T10:07:11.498Z,101042.63
2022-11-10T10:12:07.146Z,101041.97
2022-11-10T10:16:36.353Z,101048.34
2022-11-10T10:21:17.705Z,101048.44
2022-11-10T10:25:40.856Z,101060.66
2022-11-10T10:30:01.963Z,101061.66
2022-11-10T10:34:27.364Z,101060.41
2022-11-10T10:38:52.541Z,101052.69
2022-11-10T10:43:12.796Z,101058.00
2022-11-10T10:47:37.496Z,101059.50
2022-11-10T10:52:18.182Z,101041.09
2022-11-10T10:56:38.719Z,101051.22
2022-11-10T11:01:21.361Z,101052.09
2022-11-10T11:05:42.091Z,101052.66
2022-11-10T11:10:02.296Z,101044.44
2022-11-10T11:14:25.693Z,101039.59
2022-11-10T11:18:46.030Z,101031.78
2022-11-10T11:23:25.659Z,101036.38
2022-11-10T11:27:58.136Z,101037.81
2022-11-10T11:32:34.766Z,101044.19
2022-11-10T11:37:12.050Z,101034.84
2022-11-10T11:41:49.262Z,101040.63
2022-11-10T11:46:21.297Z,101038.16
2022-11-10T11:50:45.903Z,101044.25
2022-11-10T11:55:53.934Z,101042.00
2022-11-10T12:00:17.457Z,101035.44
2022-11-10T12:05:03.022Z,101035.53
2022-11-10T12:09:28.792Z,101038.66
2022-11-10T12:14:49.322Z,101034.50
2022-11-10T12:19:46.859Z,101034.22
2022-11-10T12:24:19.070Z,101045.53
2022-11-10T12:28:47.725Z,101046.44
2022-11-10T12:33:26.919Z,101049.94
2022-11-10T12:37:54.018Z,101039.94
2022-11-10T12:42:19.806Z,101047.66
2022-11-10T12:46:42.319Z,101074.34
2022-11-10T12:51:13.743Z,101071.97
2022-11-10T12:55:45.556Z,101082.41
2022-11-10T13:00:27.447Z,101076.97
2022-11-10T13:05:28.014Z,101091.06
2022-11-10T13:09:48.633Z,101096.00
2022-11-10T13:14:28.045Z,101091.66
2022-11-10T13:18:53.431Z,101089.09
2022-11-10T13:23:29.950Z,101086.13
2022-11-10T13:27:52.143Z,101095.66
2022-11-10T13:32:15.793Z,101100.41
2022-11-10T13:36:43.279Z,101109.72
2022-11-10T13:41:33.862Z,101121.59
2022-11-10T13:46:02.873Z,101133.31
2022-11-10T13:50:40.562Z,101134.84
2022-11-10T13:55:31.566Z,101151.34
2022-11-10T13:59:56.531Z,101155.47
2022-11-10T14:04:35.621Z,101170.97
2022-11-10T14:09:02.838Z,101180.09
2022-11-10T14:13:32.055Z,101184.50
2022-11-10T14:17:56.047Z,101184.19
2022-11-10T14:22:31.891Z,101201.13
2022-11-10T14:26:53.736Z,101204.06
2022-11-10T14:31:23.558Z,101220.16
2022-11-10T14:35:53.046Z,101225.13
2022-11-10T14:40:17.462Z,101228.28
2022-11-10T14:44:37.805Z,101224.97
2022-11-10T14:48:59.657Z,101242.03
2022-11-10T14:53:39.164Z,101258.13
2022-11-10T14:58:05.128Z,101269.47
2022-11-10T15:02:25.654Z,101275.91
2022-11-10T15:06:48.945Z,101285.53
2022-11-10T15:11:40.292Z,101294.28
2022-11-10T15:16:22.250Z,101303.75
2022-11-10T15:20:42.432Z,101314.91
2022-11-10T15:25:15.648Z,101327.56
2022-11-10T15:29:36.038Z,101336.91
2022-11-10T15:33:59.458Z,101347.59
2022-11-10T15:38:27.478Z,101338.47
2022-11-10T15:43:08.286Z,101358.16
2022-11-10T15:47:28.378Z,101369.22
2022-11-10T15:51:52.205Z,101359.25
2022-11-10T15:56:18.464Z,101372.63
2022-11-10T16:00:39.167Z,101368.13
2022-11-10T16:05:00.293Z,101378.25
2022-11-10T16:09:20.826Z,101392.56
2022-11-10T16:13:41.383Z,101395.84
2022-11-10T16:18:01.998Z,101409.78
2022-11-10T16:22:22.373Z,101417.72
2022-11-10T16:26:42.932Z,101441.81
2022-11-10T16:31:03.354Z,101450.56
2022-11-10T16:35:24.200Z,101471.28
2022-11-10T16:39:44.424Z,101464.31
2022-11-10T16:44:13.192Z,101463.59
2022-11-10T16:48:36.104Z,101442.66
2022-11-10T16:52:57.270Z,101431.41
2022-11-10T16:57:17.698Z,101420.84
2022-11-10T17:01:41.737Z,101416.50
2022-11-10T17:06:02.832Z,101426.56
2022-11-10T17:10:23.568Z,101430.69
2022-11-10T17:14:43.861Z,101439.25
2022-11-10T17:19:07.526Z,101447.28
2022-11-10T17:23:28.137Z,101444.31
2022-11-10T17:27:48.584Z,101443.44
2022-11-10T17:32:08.831Z,101445.72
2022-11-10T17:36:30.558Z,101453.41
2022-11-10T17:40:51.956Z,101460.47
2022-11-10T17:45:20.855Z,101469.44
2022-11-10T17:49:41.155Z,101472.50
2022-11-10T17:54:05.785Z,101480.38
2022-11-10T17:58:26.344Z,101491.56
2022-11-10T18:02:52.544Z,101501.34
2022-11-10T18:07:15.385Z,101504.56
2022-11-10T18:11:36.040Z,101502.91
2022-11-10T18:15:59.765Z,101502.06
2022-11-10T18:20:20.089Z,101516.50
2022-11-10T18:24:40.238Z,101513.34
2022-11-10T18:29:00.748Z,101527.13
2022-11-10T18:33:21.607Z,101538.56
2022-11-10T18:37:42.340Z,101541.06
2022-11-10T18:42:02.848Z,101531.75
2022-11-10T18:46:23.589Z,101536.34
2022-11-10T18:50:44.126Z,101535.78
2022-11-10T18:55:04.685Z,101539.16
2022-11-10T18:59:24.997Z,101546.81
2022-11-10T19:03:45.865Z,101559.19
2022-11-10T19:08:08.061Z,101565.81
2022-11-10T19:12:28.255Z,101573.91
2022-11-10T19:16:48.853Z,101581.50
2022-11-10T19:21:14.952Z,101603.66
2022-11-10T19:25:35.191Z,101610.81
2022-11-10T19:29:55.500Z,101620.47
2022-11-10T19:34:18.831Z,101621.66
2022-11-10T19:38:39.789Z,101646.25
2022-11-10T19:43:00.209Z,101643.72
2022-11-10T19:47:20.991Z,101660.31
2022-11-10T19:51:41.073Z,101666.13
2022-11-10T19:56:05.051Z,101671.41
2022-11-10T20:00:25.864Z,101687.97
2022-11-10T20:05:05.065Z,101687.34
2022-11-10T20:09:25.319Z,101685.47
2022-11-10T20:13:46.017Z,101688.84
2022-11-10T20:18:07.137Z,101681.19
2022-11-10T20:22:27.671Z,101685.16
2022-11-10T20:26:49.805Z,101677.75
2022-11-10T20:31:16.233Z,101681.53
2022-11-10T20:35:41.396Z,101670.69
2022-11-10T20:40:07.332Z,101685.63
2022-11-10T20:44:39.781Z,101698.09
2022-11-10T20:49:00.343Z,101692.59
2022-11-10T20:53:21.219Z,101684.69
2022-11-10T20:57:41.911Z,101690.25
2022-11-10T21:02:02.896Z,101687.84
2022-11-10T21:06:23.225Z,101681.97
2022-11-10T21:10:50.117Z,101681.41
2022-11-10T21:15:10.398Z,101685.81
2022-11-10T21:19:35.058Z,101687.97
2022-11-10T21:23:57.423Z,101699.47
2022-11-10T21:28:18.327Z,101701.19
2022-11-10T21:32:38.592Z,101707.41
2022-11-10T21:36:59.077Z,101719.72
2022-11-10T21:41:19.434Z,101722.22
2022-11-10T21:45:40.153Z,101719.75
2022-11-10T21:50:00.223Z,101735.31
2022-11-10T21:54:20.973Z,101730.97
2022-11-10T21:58:41.106Z,101739.56
2022-11-10T22:03:03.786Z,101734.56
2022-11-10T22:07:23.973Z,101729.44
2022-11-10T22:12:03.260Z,101739.88
2022-11-10T22:16:47.522Z,101744.25
2022-11-10T22:21:08.652Z,101733.94
2022-11-10T22:25:28.647Z,101740.22
2022-11-10T22:29:49.260Z,101735.97
2022-11-10T22:34:09.448Z,101745.56
2022-11-10T22:38:37.586Z,101754.22
2022-11-10T22:43:16.297Z,101760.97
2022-11-10T22:47:55.637Z,101760.97
2022-11-10T22:52:15.796Z,101761.88
2022-11-10T22:56:36.616Z,101774.03
2022-11-10T23:01:07.294Z,101775.75
2022-11-10T23:05:28.006Z,101782.69
2022-11-10T23:09:48.174Z,101773.13
2022-11-10T23:14:10.314Z,101780.13
2022-11-10T23:18:30.915Z,101781.81
2022-11-10T23:22:51.354Z,101778.28
2022-11-10T23:27:11.412Z,101777.59
2022-11-10T23:31:32.025Z,101778.72
2022-11-10T23:35:52.132Z,101784.94
2022-11-10T23:40:12.920Z,101794.44
2022-11-10T23:44:33.196Z,101790.13
2022-11-10T23:48:54.011Z,101794.59
2022-11-10T23:53:14.667Z,101788.56
2022-11-10T23:57:35.527Z,101788.84
